createdAt,value
2022-11-01T00:01:01.732Z,100859.41
2022-11-01T00:03:29.080Z,100853.00
2022-11-01T00:05:56.460Z,100855.38
2022-11-01T00:08:23.740Z,100855.09
2022-11-01T00:10:50.905Z,100859.41
2022-11-01T00:13:18.391Z,100854.50
2022-11-01T00:15:45.586Z,100850.78
2022-11-01T00:18:12.811Z,100862.66
2022-11-01T00:20:39.996Z,100851.63
2022-11-01T00:23:25.026Z,100861.97
2022-11-01T00:25:52.286Z,100860.31
2022-11-01T00:28:19.722Z,100860.13
2022-11-01T00:30:47.023Z,100865.97
2022-11-01T00:33:14.230Z,100863.63
2022-11-01T00:35:41.425Z,100854.25
2022-11-01T00:38:08.896Z,100860.69
2022-11-01T00:40:36.199Z,100861.22
2022-11-01T00:43:03.498Z,100864.16
2022-11-01T00:45:30.730Z,100854.53
2022-11-01T00:47:58.720Z,100859.63
2022-11-01T00:50:26.713Z,100855.59
2022-11-01T00:52:53.927Z,100858.59
2022-11-01T00:55:21.226Z,100862.09
2022-11-01T00:57:48.507Z,100865.56
2022-11-01T01:00:15.905Z,100855.94
2022-11-01T01:02:43.278Z,100864.53
2022-11-01T01:05:10.695Z,100864.25
2022-11-01T01:07:38.141Z,100861.88
2022-11-01T01:10:06.618Z,100867.22
2022-11-01T01:12:34.124Z,100875.25
2022-11-01T01:15:01.822Z,100869.38
2022-11-01T01:17:32.793Z,100880.63
2022-11-01T01:20:01.162Z,100875.31
2022-11-01T01:22:28.920Z,100876.09
2022-11-01T01:24:56.408Z,100879.03
2022-11-01T01:27:24.038Z,100874.72
2022-11-01T01:29:52.229Z,100873.66
2022-11-01T01:32:22.144Z,100867.75
2022-11-01T01:34:50.194Z,100869.38
2022-11-01T01:37:18.092Z,100875.81
2022-11-01T01:39:45.288Z,100878.19
2022-11-01T01:42:30.983Z,100875.72
2022-11-01T01:45:01.446Z,100882.13
2022-11-01T01:47:36.563Z,100884.88
2022-11-01T01:50:18.229Z,100882.75
2022-11-01T01:53:00.747Z,100885.97
2022-11-01T01:55:35.004Z,100884.88
2022-11-01T01:58:03.528Z,100888.09
2022-11-01T02:00:30.931Z,100885.16
2022-11-01T02:02:58.543Z,100888.66
2022-11-01T02:05:37.837Z,100884.91
2022-11-01T02:08:06.796Z,100883.03
2022-11-01T02:10:38.402Z,100891.34
2022-11-01T02:13:14.422Z,100892.19
2022-11-01T02:15:58.886Z,100887.56
2022-11-01T02:18:41.850Z,100894.03
2022-11-01T02:21:39.621Z,100891.09
2022-11-01T02:24:31.475Z,100886.03
2022-11-01T02:27:11.537Z,100890.84
2022-11-01T02:30:14.270Z,100896.75
2022-11-01T02:32:47.772Z,100891.38
2022-11-01T02:35:18.340Z,100899.44
2022-11-01T02:38:09.149Z,100889.78
2022-11-01T02:40:55.359Z,100904.25
2022-11-01T02:43:29.780Z,100898.06
2022-11-01T02:45:59.555Z,100908.28
2022-11-01T02:48:26.792Z,100907.47
2022-11-01T02:50:57.143Z,100916.63
2022-11-01T02:53:24.835Z,100909.91
2022-11-01T02:55:53.367Z,100909.38
2022-11-01T02:58:24.488Z,100915.28
2022-11-01T03:00:52.081Z,100924.16
2022-11-01T03:03:23.918Z,100927.88
2022-11-01T03:06:01.791Z,100920.06
2022-11-01T03:08:44.777Z,100922.00
2022-11-01T03:11:24.316Z,100928.16
2022-11-01T03:14:39.035Z,100929.00
2022-11-01T03:17:28.792Z,100935.41
2022-11-01T03:20:09.338Z,100939.19
2022-11-01T03:22:39.649Z,100940.25
2022-11-01T03:25:34.459Z,100933.25
2022-11-01T03:28:07.232Z,100939.44
2022-11-01T03:30:40.033Z,100939.44
2022-11-01T03:33:07.482Z,100942.94
2022-11-01T03:35:38.548Z,100960.38
2022-11-01T03:38:09.995Z,100948.84
2022-11-01T03:40:39.762Z,100947.75
2022-11-01T03:43:11.956Z,100951.53
2022-11-01T03:45:40.784Z,100954.19
2022-11-01T03:48:08.353Z,100956.91
2022-11-01T03:50:36.021Z,100964.13
2022-11-01T03:53:03.246Z,100961.19
2022-11-01T03:55:30.645Z,100961.19
2022-11-01T03:57:59.711Z,100958.22
2022-11-01T04:00:33.607Z,100960.63
2022-11-01T04:03:01.715Z,100957.97
2022-11-01T04:05:31.472Z,100965.47
2022-11-01T04:07:59.082Z,100967.09
2022-11-01T04:10:29.817Z,100967.63
2022-11-01T04:12:59.168Z,100965.47
2022-11-01T04:15:27.757Z,100960.66
2022-11-01T04:18:14.875Z,100957.41
2022-11-01T04:20:42.113Z,100958.50
2022-11-01T04:23:09.392Z,100963.59
2022-11-01T04:25:36.691Z,100955.53
2022-11-01T04:28:04.103Z,100961.72
2022-11-01T04:30:31.318Z,100963.34
2022-11-01T04:32:58.715Z,100958.34
2022-11-01T04:35:26.063Z,100958.38
2022-11-01T04:37:59.807Z,100962.50
2022-11-01T04:40:27.353Z,100957.41
2022-11-01T04:42:54.690Z,100971.88
2022-11-01T04:45:21.999Z,100970.13
2022-11-01T04:47:49.232Z,100968.59
2022-11-01T04:50:17.327Z,100973.50
2022-11-01T04:52:45.005Z,100969.66
2022-11-01T04:55:12.762Z,100972.06
2022-11-01T04:57:56.570Z,100977.69
2022-11-01T05:00:24.454Z,100975.53
2022-11-01T05:03:01.684Z,100983.13
2022-11-01T05:05:35.928Z,100983.22
2022-11-01T05:08:07.350Z,100988.47
2022-11-01T05:10:37.797Z,100981.72
2022-11-01T05:13:07.037Z,100984.69
2022-11-01T05:15:53.591Z,100991.88
2022-11-01T05:18:32.328Z,100981.72
2022-11-01T05:21:00.150Z,100986.16
2022-11-01T05:23:27.353Z,100990.16
2022-11-01T05:25:54.589Z,100994.75
2022-11-01T05:28:22.770Z,100996.38
2022-11-01T05:30:55.456Z,100993.69
2022-11-01T05:33:25.911Z,101003.91
2022-11-01T05:35:53.555Z,101006.34
2022-11-01T05:38:20.814Z,101009.81
2022-11-01T05:40:48.046Z,101013.56
2022-11-01T05:43:15.588Z,101004.69
2022-11-01T05:45:43.141Z,101015.41
2022-11-01T05:48:17.688Z,101014.06
2022-11-01T05:50:51.342Z,101025.63
2022-11-01T05:53:25.106Z,101033.97
2022-11-01T05:55:57.879Z,101034.19
2022-11-01T05:58:29.577Z,101028.56
2022-11-01T06:01:05.895Z,101035.28
2022-11-01T06:03:36.477Z,101036.31
2022-11-01T06:06:04.999Z,101034.47
2022-11-01T06:08:32.590Z,101044.94
2022-11-01T06:11:05.287Z,101037.41
2022-11-01T06:13:33.826Z,101044.91
2022-11-01T06:16:05.287Z,101048.78
2022-11-01T06:18:36.366Z,101046.91
2022-11-01T06:21:09.575Z,101046.06
2022-11-01T06:23:39.633Z,101059.59
2022-11-01T06:26:09.781Z,101050.03
2022-11-01T06:28:39.753Z,101051.19
2022-11-01T06:31:10.071Z,101059.75
2022-11-01T06:33:38.054Z,101051.75
2022-11-01T06:36:06.282Z,101051.19
2022-11-01T06:38:36.323Z,101055.00
2022-11-01T06:41:06.029Z,101050.09
2022-11-01T06:43:33.536Z,101060.88
2022-11-01T06:46:01.274Z,101056.59
2022-11-01T06:48:28.962Z,101056.75
2022-11-01T06:50:56.527Z,101058.06
2022-11-01T06:53:27.634Z,101053.78
2022-11-01T06:55:58.519Z,101050.59
2022-11-01T06:58:27.138Z,101048.91
2022-11-01T07:00:54.473Z,101055.91
2022-11-01T07:03:24.628Z,101051.72
2022-11-01T07:05:59.249Z,101058.69
2022-11-01T07:08:29.819Z,101053.50
2022-11-01T07:11:00.662Z,101063.75
2022-11-01T07:13:28.697Z,101058.56
2022-11-01T07:15:59.590Z,101053.41
2022-11-01T07:18:27.116Z,101053.44
2022-11-01T07:20:57.405Z,101047.19
2022-11-01T07:23:27.639Z,101049.63
2022-11-01T07:25:57.791Z,101053.84
2022-11-01T07:28:29.163Z,101057.19
2022-11-01T07:30:57.161Z,101052.59
2022-11-01T07:33:29.649Z,101059.38
2022-11-01T07:35:57.189Z,101061.78
2022-11-01T07:38:30.051Z,101057.56
2022-11-01T07:40:57.296Z,101056.38
2022-11-01T07:43:24.990Z,101060.09
2022-11-01T07:45:58.990Z,101061.09
2022-11-01T07:48:29.115Z,101055.38
2022-11-01T07:51:02.808Z,101056.91
2022-11-01T07:53:35.371Z,101057.38
2022-11-01T07:56:07.192Z,101053.22
2022-11-01T07:58:34.716Z,101053.38
2022-11-01T08:01:08.103Z,101052.88
2022-11-01T08:03:39.550Z,101055.28
2022-11-01T08:06:08.163Z,101047.91
2022-11-01T08:08:38.844Z,101051.88
2022-11-01T08:11:08.627Z,101048.84
2022-11-01T08:13:38.645Z,101047.19
2022-11-01T08:16:09.655Z,101036.56
2022-11-01T08:18:40.192Z,101045.53
2022-11-01T08:21:10.782Z,101050.00
2022-11-01T08:23:44.324Z,101044.63
2022-11-01T08:26:15.318Z,101048.41
2022-11-01T08:28:45.618Z,101046.22
2022-11-01T08:31:19.025Z,101045.06
2022-11-01T08:33:46.655Z,101035.41
2022-11-01T08:36:16.423Z,101033.25
2022-11-01T08:38:50.581Z,101026.16
2022-11-01T08:41:17.862Z,101033.66
2022-11-01T08:43:45.619Z,101027.59
2022-11-01T08:46:13.341Z,101028.88
2022-11-01T08:48:40.753Z,101029.88
2022-11-01T08:51:13.883Z,101023.81
2022-11-01T08:53:44.407Z,101030.47
2022-11-01T08:56:12.079Z,101025.50
2022-11-01T08:58:42.494Z,101026.09
2022-11-01T09:01:17.661Z,101025.00
2022-11-01T09:03:48.341Z,101031.44
2022-11-01T09:06:15.741Z,101033.84
2022-11-01T09:08:43.027Z,101024.69
2022-11-01T09:11:18.235Z,101016.81
2022-11-01T09:13:48.264Z,101019.09
2022-11-01T09:16:19.508Z,101013.88
2022-11-01T09:18:47.392Z,101012.78
2022-11-01T09:21:31.855Z,101020.88
2022-11-01T09:24:09.879Z,101012.00
2022-11-01T09:26:43.603Z,101014.50
2022-11-01T09:29:12.508Z,101002.09
2022-11-01T09:31:42.761Z,101006.97
2022-11-01T09:34:10.041Z,101004.75
2022-11-01T09:36:44.066Z,101006.91
2022-11-01T09:39:14.591Z,101001.44
2022-11-01T09:41:56.955Z,100996.19
2022-11-01T09:44:33.370Z,100990.69
2022-11-01T09:47:13.022Z,100988.00
2022-11-01T09:49:44.146Z,100984.78
2022-11-01T09:52:26.535Z,100979.22
2022-11-01T09:54:53.769Z,100986.09
2022-11-01T09:57:43.880Z,100974.16
2022-11-01T10:00:20.938Z,100977.00
2022-11-01T10:03:12.885Z,100966.00
2022-11-01T10:05:46.119Z,100965.78
2022-11-01T10:08:31.442Z,100967.41
2022-11-01T10:12:02.604Z,100961.09
2022-11-01T10:14:41.919Z,100957.53
2022-11-01T10:17:19.821Z,100951.66
2022-11-01T10:19:50.897Z,100952.66
2022-11-01T10:22:40.298Z,100943.56
2022-11-01T10:25:19.664Z,100950.28
2022-11-01T10:28:04.178Z,100943.25
2022-11-01T10:30:43.079Z,100942.97
2022-11-01T10:33:16.573Z,100937.38
2022-11-01T10:35:49.457Z,100935.47
2022-11-01T10:38:50.028Z,100928.44
2022-11-01T10:41:49.396Z,100926.72
2022-11-01T10:44:34.655Z,100924.81
2022-11-01T10:47:10.886Z,100927.69
2022-11-01T10:50:04.929Z,100921.75
2022-11-01T10:52:58.588Z,100921.28
2022-11-01T10:55:52.331Z,100920.31
2022-11-01T10:58:30.820Z,100914.72
2022-11-01T11:01:03.431Z,100908.03
2022-11-01T11:03:31.529Z,100901.81
2022-11-01T11:06:08.902Z,100897.66
2022-11-01T11:08:40.709Z,100894.97
2022-11-01T11:11:12.730Z,100891.28
2022-11-01T11:13:54.943Z,100882.78
2022-11-01T11:16:47.212Z,100879.72
2022-11-01T11:19:22.629Z,100885.28
2022-11-01T11:21:58.709Z,100882.22
2022-11-01T11:24:32.389Z,100879.28
2022-11-01T11:27:02.219Z,100870.66
2022-11-01T11:29:50.037Z,100871.59
2022-11-01T11:32:24.318Z,100875.56
2022-11-01T11:34:55.184Z,100869.56
2022-11-01T11:37:28.984Z,100862.56
2022-11-01T11:40:24.031Z,100856.81
2022-11-01T11:42:56.330Z,100862.25
2022-11-01T11:45:31.158Z,100866.63
2022-11-01T11:48:18.857Z,100862.06
2022-11-01T11:50:46.340Z,100861.69
2022-11-01T11:53:18.383Z,100862.41
2022-11-01T11:55:54.112Z,100859.81
2022-11-01T11:58:35.879Z,100850.47
2022-11-01T12:01:11.382Z,100844.91
2022-11-01T12:03:50.743Z,100843.19
2022-11-01T12:06:30.163Z,100835.44
2022-11-01T12:09:01.289Z,100840.06
2022-11-01T12:11:46.599Z,100845.41
2022-11-01T12:14:23.908Z,100837.94
2022-11-01T12:16:52.136Z,100836.31
2022-11-01T12:19:28.666Z,100839.19
2022-11-01T12:22:03.481Z,100838.19
2022-11-01T12:24:38.874Z,100833.50
2022-11-01T12:27:14.340Z,100826.78
2022-11-01T12:29:49.004Z,100830.94
2022-11-01T12:32:36.900Z,100825.47
2022-11-01T12:35:15.034Z,100818.94
2022-11-01T12:38:04.604Z,100822.88
2022-11-01T12:40:38.800Z,100819.72
2022-11-01T12:43:21.281Z,100817.56
2022-11-01T12:46:03.166Z,100815.97
2022-11-01T12:48:36.403Z,100820.66
2022-11-01T12:51:10.104Z,100811.75
2022-11-01T12:53:48.802Z,100818.09
2022-11-01T12:56:17.905Z,100815.56
2022-11-01T12:58:45.430Z,100810.13
2022-11-01T13:01:38.834Z,100806.56
2022-11-01T13:04:16.509Z,100808.56
2022-11-01T13:06:46.455Z,100807.75
2022-11-01T13:09:58.226Z,100795.63
2022-11-01T13:13:00.976Z,100802.63
2022-11-01T13:15:39.577Z,100797.00
2022-11-01T13:18:20.282Z,100800.09
2022-11-01T13:20:50.842Z,100795.78
2022-11-01T13:23:24.299Z,100794.34
2022-11-01T13:26:14.613Z,100795.59
2022-11-01T13:29:02.124Z,100793.53
2022-11-01T13:31:59.590Z,100785.22
2022-11-01T13:35:05.890Z,100787.78
2022-11-01T13:37:39.087Z,100784.47
2022-11-01T13:40:32.753Z,100780.16
2022-11-01T13:43:34.059Z,100783.38
2022-11-01T13:46:19.209Z,100792.63
2022-11-01T13:48:59.607Z,100779.59
2022-11-01T13:51:41.493Z,100783.44
2022-11-01T13:54:36.333Z,100783.28
2022-11-01T13:57:07.125Z,100780.72
2022-11-01T13:59:37.109Z,100775.91
2022-11-01T14:02:53.031Z,100774.63
2022-11-01T14:05:38.620Z,100777.22
2022-11-01T14:08:15.465Z,100772.41
2022-11-01T14:10:50.622Z,100768.13
2022-11-01T14:13:37.645Z,100774.19
2022-11-01T14:16:25.520Z,100767.81
2022-11-01T14:19:12.048Z,100766.22
2022-11-01T14:21:45.844Z,100767.97
2022-11-01T14:24:34.566Z,100770.06
2022-11-01T14:27:06.032Z,100770.22
2022-11-01T14:29:36.380Z,100764.94
2022-11-01T14:32:04.269Z,100762.38
2022-11-01T14:34:34.509Z,100763.03
2022-11-01T14:37:15.224Z,100760.63
2022-11-01T14:39:56.207Z,100763.97
2022-11-01T14:42:32.915Z,100753.75
2022-11-01T14:45:06.013Z,100758.31
2022-11-01T14:47:41.241Z,100763.44
2022-11-01T14:50:34.847Z,100756.09
2022-11-01T14:53:32.338Z,100755.47
2022-11-01T14:56:06.023Z,100750.22
2022-11-01T14:58:34.142Z,100755.66
2022-11-01T15:01:18.085Z,100754.88
2022-11-01T15:03:57.163Z,100749.38
2022-11-01T15:06:30.011Z,100752.19
2022-11-01T15:08:59.557Z,100754.97
2022-11-01T15:11:33.033Z,100759.72
2022-11-01T15:14:04.428Z,100755.69
2022-11-01T15:16:35.238Z,100748.03
2022-11-01T15:19:13.885Z,100757.16
2022-11-01T15:21:46.958Z,100747.84
2022-11-01T15:24:20.418Z,100747.72
2022-11-01T15:26:48.275Z,100756.56
2022-11-01T15:29:21.778Z,100755.25
2022-11-01T15:31:56.537Z,100756.50
2022-11-01T15:34:31.336Z,100754.41
2022-11-01T15:37:09.876Z,100752.16
2022-11-01T15:39:40.067Z,100759.91
2022-11-01T15:42:24.904Z,100761.03
2022-11-01T15:44:55.536Z,100759.78
2022-11-01T15:47:25.694Z,100759.63
2022-11-01T15:50:00.599Z,100763.44
2022-11-01T15:52:30.198Z,100763.53
2022-11-01T15:55:15.585Z,100763.16
2022-11-01T15:57:57.935Z,100771.72
2022-11-01T16:00:32.275Z,100771.81
2022-11-01T16:03:14.552Z,100768.63
2022-11-01T16:05:47.696Z,100767.34
2022-11-01T16:08:39.629Z,100776.97
2022-11-01T16:11:08.310Z,100773.69
2022-11-01T16:13:37.154Z,100778.59
2022-11-01T16:16:06.600Z,100770.72
2022-11-01T16:18:39.334Z,100772.38
2022-11-01T16:21:27.905Z,100772.59
2022-11-01T16:24:13.576Z,100778.31
2022-11-01T16:27:02.623Z,100775.81
2022-11-01T16:29:47.894Z,100774.91
2022-11-01T16:32:33.361Z,100777.03
2022-11-01T16:35:29.510Z,100785.91
2022-11-01T16:38:00.657Z,100776.19
2022-11-01T16:40:39.104Z,100787.91
2022-11-01T16:43:11.733Z,100786.41
2022-11-01T16:45:45.050Z,100790.91
2022-11-01T16:48:50.321Z,100795.28
2022-11-01T16:51:17.869Z,100784.56
2022-11-01T16:53:48.322Z,100778.75
2022-11-01T16:56:43.016Z,100783.38
2022-11-01T16:59:33.866Z,100786.13
2022-11-01T17:02:11.375Z,100791.88
2022-11-01T17:04:42.969Z,100789.13
2022-11-01T17:07:13.678Z,100797.66
2022-11-01T17:09:43.850Z,100793.16
2022-11-01T17:12:17.727Z,100798.91
2022-11-01T17:14:44.966Z,100798.03
2022-11-01T17:17:18.464Z,100796.94
2022-11-01T17:19:52.347Z,100799.72
2022-11-01T17:22:29.469Z,100796.81
2022-11-01T17:24:57.011Z,100797.09
2022-11-01T17:27:27.626Z,100808.63
2022-11-01T17:29:54.902Z,100802.78
2022-11-01T17:32:22.228Z,100811.69
2022-11-01T17:34:49.896Z,100796.59
2022-11-01T17:37:17.861Z,100808.81
2022-11-01T17:39:47.232Z,100808.91
2022-11-01T17:42:14.500Z,100807.09
2022-11-01T17:44:41.697Z,100800.88
2022-11-01T17:47:14.171Z,100803.38
2022-11-01T17:49:41.806Z,100802.78
2022-11-01T17:52:11.525Z,100796.44
2022-11-01T17:54:41.531Z,100809.13
2022-11-01T17:57:11.570Z,100806.47
2022-11-01T17:59:38.799Z,100808.19
2022-11-01T18:02:06.118Z,100809.91
2022-11-01T18:04:35.688Z,100804.13
2022-11-01T18:07:06.099Z,100801.69
2022-11-01T18:09:34.133Z,100806.56
2022-11-01T18:12:19.613Z,100810.06
2022-11-01T18:15:08.134Z,100801.16
2022-11-01T18:17:59.939Z,100806.56
2022-11-01T18:20:48.517Z,100799.63
2022-11-01T18:23:23.130Z,100794.03
2022-11-01T18:25:51.146Z,100798.16
2022-11-01T18:28:24.715Z,100806.16
2022-11-01T18:30:58.332Z,100803.47
2022-11-01T18:33:37.672Z,100807.53
2022-11-01T18:36:14.001Z,100807.84
2022-11-01T18:39:14.411Z,100799.50
2022-11-01T18:41:47.594Z,100791.50
2022-11-01T18:44:19.656Z,100798.31
2022-11-01T18:47:14.724Z,100792.44
2022-11-01T18:49:45.868Z,100790.34
2022-11-01T18:52:18.610Z,100798.00
2022-11-01T18:54:55.343Z,100797.78
2022-11-01T18:57:23.858Z,100796.63
2022-11-01T18:59:53.194Z,100790.47
2022-11-01T19:02:21.987Z,100784.22
2022-11-01T19:04:52.069Z,100791.50
2022-11-01T19:07:23.365Z,100793.78
2022-11-01T19:09:54.711Z,100791.34
2022-11-01T19:12:28.286Z,100794.59
2022-11-01T19:15:02.953Z,100790.53
2022-11-01T19:17:37.439Z,100787.16
2022-11-01T19:20:28.920Z,100783.69
2022-11-01T19:23:01.195Z,100794.00
2022-11-01T19:25:35.005Z,100788.03
2022-11-01T19:28:12.571Z,100798.75
2022-11-01T19:30:39.824Z,100802.53
2022-11-01T19:33:22.049Z,100799.22
2022-11-01T19:35:54.303Z,100800.31
2022-11-01T19:38:24.817Z,100787.22
2022-11-01T19:40:55.128Z,100794.22
2022-11-01T19:43:28.363Z,100801.50
2022-11-01T19:45:58.407Z,100804.53
2022-11-01T19:48:30.733Z,100795.38
2022-11-01T19:50:58.127Z,100799.66
2022-11-01T19:53:33.943Z,100789.19
2022-11-01T19:56:04.713Z,100794.94
2022-11-01T19:58:41.980Z,100783.28
2022-11-01T20:01:33.071Z,100790.41
2022-11-01T20:04:00.419Z,100789.13
2022-11-01T20:06:27.596Z,100794.97
2022-11-01T20:09:06.098Z,100800.91
2022-11-01T20:11:33.361Z,100797.25
2022-11-01T20:14:01.173Z,100798.44
2022-11-01T20:16:28.668Z,100809.78
2022-11-01T20:18:55.943Z,100805.69
2022-11-01T20:21:23.200Z,100812.75
2022-11-01T20:23:50.403Z,100810.19
2022-11-01T20:26:17.613Z,100809.41
2022-11-01T20:28:45.064Z,100805.91
2022-11-01T20:31:15.541Z,100802.16
2022-11-01T20:33:42.818Z,100794.72
2022-11-01T20:36:11.476Z,100798.00
2022-11-01T20:38:39.528Z,100790.19
2022-11-01T20:41:06.824Z,100795.09
2022-11-01T20:43:34.741Z,100799.41
2022-11-01T20:46:02.027Z,100792.97
2022-11-01T20:48:32.750Z,100788.66
2022-11-01T20:50:59.971Z,100784.41
2022-11-01T20:53:29.832Z,100791.47
2022-11-01T20:55:57.560Z,100780.22
2022-11-01T20:58:24.842Z,100787.69
2022-11-01T21:00:52.230Z,100791.38
2022-11-01T21:03:21.365Z,100794.09
2022-11-01T21:05:49.440Z,100796.75
2022-11-01T21:08:24.433Z,100789.25
2022-11-01T21:10:59.642Z,100788.00
2022-11-01T21:13:35.481Z,100792.03
2022-11-01T21:16:07.978Z,100790.69
2022-11-01T21:18:38.870Z,100795.19
2022-11-01T21:21:28.802Z,100793.63
2022-11-01T21:23:56.223Z,100790.44
2022-11-01T21:26:29.396Z,100787.81
2022-11-01T21:29:19.369Z,100788.34
2022-11-01T21:31:46.754Z,100787.31
2022-11-01T21:34:13.992Z,100788.91
2022-11-01T21:36:48.819Z,100791.31
2022-11-01T21:39:20.759Z,100780.06
2022-11-01T21:42:00.852Z,100783.53
2022-11-01T21:44:35.607Z,100784.09
2022-11-01T21:47:08.834Z,100779.78
2022-11-01T21:49:36.446Z,100768.03
2022-11-01T21:52:06.280Z,100775.81
2022-11-01T21:54:35.639Z,100767.75
2022-11-01T21:57:05.178Z,100766.41
2022-11-01T21:59:33.052Z,100766.41
2022-11-01T22:02:01.134Z,100763.19
2022-11-01T22:04:30.258Z,100763.72
2022-11-01T22:06:59.095Z,100769.38
2022-11-01T22:09:27.131Z,100768.03
2022-11-01T22:11:54.432Z,100769.09
2022-11-01T22:14:22.759Z,100763.47
2022-11-01T22:16:50.103Z,100761.31
2022-11-01T22:19:24.535Z,100760.81
2022-11-01T22:21:51.732Z,100761.06
2022-11-01T22:24:19.169Z,100759.19
2022-11-01T22:26:46.426Z,100755.69
2022-11-01T22:29:13.595Z,100764.56
2022-11-01T22:31:43.337Z,100753.56
2022-11-01T22:34:10.538Z,100765.34
2022-11-01T22:36:40.536Z,100760.00
2022-11-01T22:39:19.070Z,100755.72
2022-11-01T22:41:49.532Z,100757.56
2022-11-01T22:44:18.982Z,100751.66
2022-11-01T22:46:58.215Z,100755.69
2022-11-01T22:49:27.161Z,100743.09
2022-11-01T22:52:03.347Z,100752.50
2022-11-01T22:54:33.583Z,100754.63
2022-11-01T22:57:18.841Z,100739.59
2022-11-01T22:59:56.104Z,100749.25
2022-11-01T23:02:34.944Z,100745.50
2022-11-01T23:05:08.440Z,100748.19
2022-11-01T23:07:45.890Z,100738.28
2022-11-01T23:10:26.658Z,100737.47
2022-11-01T23:13:16.540Z,100735.06
2022-11-01T23:15:44.691Z,100730.78
2022-11-01T23:18:18.810Z,100731.03
2022-11-01T23:20:54.152Z,100730.50
2022-11-01T23:23:22.216Z,100719.78
2022-11-01T23:25:50.455Z,100731.56
2022-11-01T23:28:18.274Z,100730.22
2022-11-01T23:30:57.413Z,100732.59
2022-11-01T23:33:41.394Z,100738.75
2022-11-01T23:36:26.050Z,100735.00
2022-11-01T23:39:14.128Z,100732.03
2022-11-01T23:41:47.473Z,100734.19
2022-11-01T23:44:28.421Z,100731.53
2022-11-01T23:47:20.811Z,100735.25
2022-11-01T23:49:56.381Z,100730.16
2022-11-01T23:52:35.462Z,100724.50
2022-11-01T23:55:04.254Z,100731.47
2022-11-01T23:57:31.482Z,100728.00
2022-11-01T23:59:58.687Z,100726.09
